createdAt,value
2023-03-19T00:00:36.779Z,10.50
2023-03-19T00:03:03.787Z,10.50
2023-03-19T00:05:30.672Z,10.50
2023-03-19T00:07:57.616Z,10.50
2023-03-19T00:10:24.450Z,10.60
2023-03-19T00:12:51.565Z,10.50
2023-03-19T00:15:18.513Z,10.60
2023-03-19T00:17:45.336Z,10.30
2023-03-19T00:20:14.853Z,10.30
2023-03-19T00:22:42.042Z,10.30
2023-03-19T00:25:10.084Z,10.30
2023-03-19T00:27:38.531Z,10.40
2023-03-19T00:30:07.343Z,10.40
2023-03-19T00:32:35.727Z,10.30
2023-03-19T00:35:03.808Z,10.30
2023-03-19T00:37:30.610Z,10.30
2023-03-19T00:39:57.385Z,10.30
2023-03-19T00:42:24.381Z,10.40
2023-03-19T00:44:51.212Z,10.30
2023-03-19T00:47:18.101Z,10.20
2023-03-19T00:49:44.914Z,10.30
2023-03-19T00:52:11.755Z,10.20
2023-03-19T00:54:40.046Z,10.20
2023-03-19T00:57:07.870Z,10.20
2023-03-19T00:59:34.665Z,10.20
2023-03-19T01:02:03.577Z,10.30
2023-03-19T01:04:30.731Z,10.20
2023-03-19T01:09:26.786Z,10.10
2023-03-19T01:11:53.646Z,10.20
2023-03-19T01:14:20.610Z,10.20
2023-03-19T01:16:47.415Z,10.40
2023-03-19T01:19:14.409Z,10.30
2023-03-19T01:21:43.007Z,10.20
2023-03-19T01:24:10.785Z,10.20
2023-03-19T01:26:38.588Z,10.30
2023-03-19T01:29:17.366Z,10.20
2023-03-19T01:31:44.516Z,10.10
2023-03-19T01:34:30.153Z,10.20
2023-03-19T01:37:05.305Z,10.20
2023-03-19T01:39:33.890Z,10.20
2023-03-19T01:42:04.481Z,10.20
2023-03-19T01:44:42.742Z,10.20
2023-03-19T01:47:34.433Z,10.10
2023-03-19T01:50:28.430Z,10.20
2023-03-19T01:53:14.318Z,10.20
2023-03-19T01:56:00.899Z,10.30
2023-03-19T01:58:40.127Z,10.20
2023-03-19T02:01:30.139Z,10.10
2023-03-19T02:03:59.714Z,10.00
2023-03-19T02:06:30.953Z,10.10
2023-03-19T02:08:59.236Z,10.10
2023-03-19T02:11:26.808Z,10.00
2023-03-19T02:13:54.041Z,10.10
2023-03-19T02:16:21.386Z,10.10
2023-03-19T02:18:49.317Z,10.10
2023-03-19T02:21:17.786Z,10.00
2023-03-19T02:24:07.901Z,10.00
2023-03-19T02:27:09.236Z,10.00
2023-03-19T02:29:38.390Z,9.90
2023-03-19T02:32:05.337Z,10.00
2023-03-19T02:34:38.925Z,10.00
2023-03-19T02:37:21.126Z,10.00
2023-03-19T02:40:11.680Z,10.00
2023-03-19T02:42:38.468Z,10.00
2023-03-19T02:45:05.944Z,10.00
2023-03-19T02:47:32.948Z,10.00
2023-03-19T02:49:59.803Z,10.00
2023-03-19T02:52:27.165Z,10.00
2023-03-19T02:54:54.001Z,10.20
2023-03-19T02:57:21.180Z,10.00
2023-03-19T02:59:48.156Z,10.00
2023-03-19T03:02:15.409Z,10.10
2023-03-19T03:04:42.284Z,10.10
2023-03-19T03:07:09.093Z,10.30
2023-03-19T03:09:36.278Z,10.20
2023-03-19T03:12:03.527Z,10.20
2023-03-19T03:14:30.430Z,10.20
2023-03-19T03:16:57.441Z,10.10
2023-03-19T03:19:24.631Z,10.10
2023-03-19T03:21:51.971Z,10.10
2023-03-19T03:24:19.152Z,10.10
2023-03-19T03:26:46.232Z,10.10
2023-03-19T03:29:15.412Z,10.10
2023-03-19T03:31:42.477Z,10.40
2023-03-19T03:34:09.340Z,10.20
2023-03-19T03:36:36.906Z,10.20
2023-03-19T03:39:04.194Z,10.00
2023-03-19T03:41:31.062Z,10.10
2023-03-19T03:43:57.813Z,10.10
2023-03-19T03:46:24.971Z,10.10
2023-03-19T03:48:52.287Z,10.00
2023-03-19T03:51:19.777Z,10.00
2023-03-19T03:53:46.939Z,10.00
2023-03-19T03:56:14.741Z,10.00
2023-03-19T03:58:41.712Z,10.00
2023-03-19T04:01:13.942Z,10.00
2023-03-19T04:03:41.443Z,10.00
2023-03-19T04:06:09.937Z,10.10
2023-03-19T04:08:36.786Z,9.90
2023-03-19T04:11:07.770Z,9.80
2023-03-19T04:13:36.864Z,9.90
2023-03-19T04:16:10.006Z,9.80
2023-03-19T04:18:37.717Z,9.90
2023-03-19T04:21:05.832Z,9.70
2023-03-19T04:23:33.195Z,9.70
2023-03-19T04:26:01.827Z,9.70
2023-03-19T04:28:31.529Z,9.60
2023-03-19T04:31:00.411Z,9.60
2023-03-19T04:33:27.465Z,9.70
2023-03-19T04:35:55.546Z,9.70
2023-03-19T04:38:23.115Z,9.70
2023-03-19T04:40:49.988Z,9.90
2023-03-19T04:43:17.451Z,9.90
2023-03-19T04:45:44.958Z,9.80
2023-03-19T04:48:12.731Z,9.80
2023-03-19T04:50:41.978Z,9.80
2023-03-19T04:53:09.285Z,9.80
2023-03-19T04:55:37.123Z,9.70
2023-03-19T04:58:09.234Z,9.70
2023-03-19T05:00:37.253Z,9.60
2023-03-19T05:03:05.009Z,9.60
2023-03-19T05:05:32.554Z,9.60
2023-03-19T05:08:01.961Z,9.60
2023-03-19T05:10:29.141Z,9.60
2023-03-19T05:12:56.698Z,9.70
2023-03-19T05:15:23.907Z,9.70
2023-03-19T05:17:58.856Z,9.70
2023-03-19T05:20:45.986Z,9.60
2023-03-19T05:23:18.825Z,9.60
2023-03-19T05:25:54.673Z,9.60
2023-03-19T05:28:40.106Z,9.70
2023-03-19T05:31:07.101Z,9.90
2023-03-19T05:33:40.810Z,9.70
2023-03-19T05:36:08.391Z,9.80
2023-03-19T05:38:46.872Z,9.80
2023-03-19T05:41:20.582Z,9.70
2023-03-19T05:43:56.496Z,9.60
2023-03-19T05:46:58.741Z,9.60
2023-03-19T05:49:29.799Z,9.70
2023-03-19T05:51:57.390Z,9.50
2023-03-19T05:54:24.664Z,9.50
2023-03-19T05:57:03.473Z,9.50
2023-03-19T05:59:51.194Z,9.40
2023-03-19T06:02:41.034Z,9.50
2023-03-19T06:05:40.484Z,9.40
2023-03-19T06:08:31.122Z,9.40
2023-03-19T06:11:24.256Z,9.40
2023-03-19T06:14:07.195Z,9.40
2023-03-19T06:16:38.600Z,9.40
2023-03-19T06:19:05.639Z,9.50
2023-03-19T06:21:32.668Z,9.50
2023-03-19T06:24:02.745Z,9.40
2023-03-19T06:26:34.194Z,9.50
2023-03-19T06:29:04.989Z,9.50
2023-03-19T06:31:31.947Z,9.50
2023-03-19T06:34:02.676Z,9.50
2023-03-19T06:36:38.422Z,9.50
2023-03-19T06:39:05.753Z,9.40
2023-03-19T06:41:32.564Z,9.30
2023-03-19T06:44:11.311Z,9.50
2023-03-19T06:46:38.187Z,9.40
2023-03-19T06:49:05.163Z,9.40
2023-03-19T06:51:31.923Z,9.50
2023-03-19T06:53:58.713Z,9.50
2023-03-19T06:56:26.049Z,9.40
2023-03-19T06:58:53.013Z,9.40
2023-03-19T07:01:20.244Z,9.40
2023-03-19T07:03:47.362Z,9.30
2023-03-19T07:06:14.196Z,9.30
2023-03-19T07:08:46.105Z,9.40
2023-03-19T07:11:14.125Z,9.40
2023-03-19T07:13:41.185Z,9.50
2023-03-19T07:16:08.806Z,9.40
2023-03-19T07:18:35.968Z,9.40
2023-03-19T07:21:03.009Z,9.40
2023-03-19T07:23:29.862Z,9.40
2023-03-19T07:25:56.893Z,9.30
2023-03-19T07:28:23.748Z,9.40
2023-03-19T07:30:54.023Z,9.40
2023-03-19T07:33:22.031Z,9.40
2023-03-19T07:35:48.972Z,9.40
2023-03-19T07:38:16.048Z,9.40
2023-03-19T07:40:51.318Z,9.40
2023-03-19T07:43:26.130Z,9.40
2023-03-19T07:45:53.219Z,9.40
2023-03-19T07:48:20.142Z,9.40
2023-03-19T07:50:47.020Z,9.40
2023-03-19T07:53:13.889Z,9.60
2023-03-19T07:55:40.760Z,9.60
2023-03-19T07:58:07.961Z,9.40
2023-03-19T08:00:35.180Z,9.40
2023-03-19T08:03:02.145Z,9.50
2023-03-19T08:05:28.959Z,9.50
2023-03-19T08:07:55.787Z,9.70
2023-03-19T08:10:23.008Z,9.70
2023-03-19T08:12:49.844Z,9.60
2023-03-19T08:15:16.709Z,9.60
2023-03-19T08:17:43.582Z,9.60
2023-03-19T08:20:12.989Z,9.60
2023-03-19T08:22:40.622Z,9.70
2023-03-19T08:25:08.133Z,9.70
2023-03-19T08:27:38.163Z,9.90
2023-03-19T08:30:07.660Z,9.90
2023-03-19T08:32:35.002Z,9.70
2023-03-19T08:35:02.326Z,9.70
2023-03-19T08:37:29.270Z,9.80
2023-03-19T08:39:56.102Z,10.10
2023-03-19T08:42:23.301Z,10.20
2023-03-19T08:44:50.545Z,10.40
2023-03-19T08:47:17.368Z,10.30
2023-03-19T08:49:44.235Z,10.30
2023-03-19T08:52:11.130Z,10.30
2023-03-19T08:54:38.036Z,10.30
2023-03-19T08:57:04.895Z,10.10
2023-03-19T08:59:34.065Z,10.40
2023-03-19T09:02:01.723Z,10.30
2023-03-19T09:04:29.405Z,10.50
2023-03-19T09:06:57.432Z,10.30
2023-03-19T09:09:24.917Z,10.30
2023-03-19T09:11:51.818Z,10.30
2023-03-19T09:14:20.642Z,10.40
2023-03-19T09:16:47.490Z,10.50
2023-03-19T09:19:14.994Z,10.40
2023-03-19T09:21:42.119Z,10.40
2023-03-19T09:24:09.067Z,10.30
2023-03-19T09:26:36.190Z,10.50
2023-03-19T09:29:03.683Z,10.40
2023-03-19T09:31:30.726Z,10.40
2023-03-19T09:33:57.595Z,10.30
2023-03-19T09:36:24.447Z,10.50
2023-03-19T09:38:51.830Z,10.60
2023-03-19T09:41:37.477Z,10.60
2023-03-19T09:44:15.796Z,10.60
2023-03-19T09:47:18.770Z,10.50
2023-03-19T09:49:50.881Z,10.50
2023-03-19T09:52:54.226Z,10.60
2023-03-19T09:55:23.680Z,10.60
2023-03-19T09:57:55.986Z,10.70
2023-03-19T10:00:27.194Z,10.70
2023-03-19T10:03:03.711Z,10.80
2023-03-19T10:06:08.675Z,10.70
2023-03-19T10:08:55.826Z,10.80
2023-03-19T10:11:52.702Z,10.80
2023-03-19T10:14:53.696Z,10.90
2023-03-19T10:17:30.442Z,10.90
2023-03-19T10:20:09.553Z,11.10
2023-03-19T10:22:46.187Z,11.10
2023-03-19T10:25:22.010Z,11.30
2023-03-19T10:27:56.846Z,11.30
2023-03-19T10:30:23.818Z,11.40
2023-03-19T10:33:28.019Z,11.50
2023-03-19T10:36:09.641Z,11.60
2023-03-19T10:38:41.527Z,11.80
2023-03-19T10:41:30.394Z,11.80
2023-03-19T10:44:02.206Z,11.90
2023-03-19T10:46:37.791Z,11.90
2023-03-19T10:49:04.702Z,12.10
2023-03-19T10:51:31.755Z,12.10
2023-03-19T10:54:01.270Z,12.20
2023-03-19T10:56:33.954Z,12.20
2023-03-19T10:59:01.921Z,12.30
2023-03-19T11:01:36.495Z,12.40
2023-03-19T11:04:22.038Z,12.50
2023-03-19T11:07:08.911Z,12.50
2023-03-19T11:09:49.003Z,12.70
2023-03-19T11:12:26.933Z,12.70
2023-03-19T11:14:57.247Z,13.00
2023-03-19T11:18:01.504Z,12.90
2023-03-19T11:20:34.761Z,13.00
2023-03-19T11:23:04.191Z,13.10
2023-03-19T11:25:37.883Z,13.10
2023-03-19T11:28:15.311Z,13.20
2023-03-19T11:31:19.436Z,13.10
2023-03-19T11:34:13.836Z,13.10
2023-03-19T11:37:19.096Z,12.80
2023-03-19T11:40:03.444Z,13.00
2023-03-19T11:42:54.884Z,13.10
2023-03-19T11:45:47.908Z,13.20
2023-03-19T11:48:38.893Z,13.20
2023-03-19T11:51:27.671Z,13.30
2023-03-19T11:53:57.227Z,13.20
2023-03-19T11:56:44.840Z,12.90
2023-03-19T11:59:51.777Z,12.80
2023-03-19T12:02:41.365Z,12.70
2023-03-19T12:05:26.728Z,13.00
2023-03-19T12:08:04.487Z,13.10
2023-03-19T12:11:09.675Z,13.30
2023-03-19T12:13:39.216Z,13.20
2023-03-19T12:16:19.679Z,13.20
2023-03-19T12:18:52.496Z,13.20
2023-03-19T12:21:58.812Z,13.30
2023-03-19T12:25:04.346Z,13.30
2023-03-19T12:27:49.805Z,13.20
2023-03-19T12:30:42.217Z,13.30
2023-03-19T12:33:21.801Z,13.30
2023-03-19T12:35:53.186Z,13.20
2023-03-19T12:38:48.284Z,13.30
2023-03-19T12:41:24.903Z,13.30
2023-03-19T12:44:11.734Z,13.30
2023-03-19T12:46:48.968Z,13.40
2023-03-19T12:49:25.780Z,13.70
2023-03-19T12:51:57.302Z,13.50
2023-03-19T12:54:31.611Z,13.20
2023-03-19T12:57:29.094Z,13.10
2023-03-19T13:00:06.734Z,13.40
2023-03-19T13:02:52.354Z,13.20
2023-03-19T13:05:30.772Z,13.20
2023-03-19T13:08:07.252Z,13.40
2023-03-19T13:10:34.371Z,13.70
2023-03-19T13:13:07.068Z,13.30
2023-03-19T13:15:42.174Z,13.10
2023-03-19T13:18:44.506Z,13.00
2023-03-19T13:21:29.910Z,13.00
2023-03-19T13:24:25.322Z,12.80
2023-03-19T13:26:54.025Z,12.80
2023-03-19T13:29:26.273Z,12.90
2023-03-19T13:32:00.138Z,12.80
2023-03-19T13:34:29.265Z,12.80
2023-03-19T13:37:08.067Z,12.80
2023-03-19T13:39:36.558Z,12.90
2023-03-19T13:42:06.482Z,12.90
2023-03-19T13:44:42.220Z,12.80
2023-03-19T13:47:28.822Z,12.80
2023-03-19T13:50:06.101Z,12.70
2023-03-19T13:52:32.932Z,13.00
2023-03-19T13:55:28.509Z,13.00
2023-03-19T13:58:16.674Z,12.90
2023-03-19T14:00:43.564Z,12.80
2023-03-19T14:03:21.853Z,13.10
2023-03-19T14:05:51.815Z,13.00
2023-03-19T14:08:28.832Z,12.80
2023-03-19T14:10:59.119Z,12.80
2023-03-19T14:13:37.955Z,12.70
2023-03-19T14:16:17.737Z,12.70
2023-03-19T14:18:44.989Z,12.70
2023-03-19T14:21:18.939Z,12.80
2023-03-19T14:23:57.720Z,12.70
2023-03-19T14:26:28.873Z,12.60
2023-03-19T14:29:07.310Z,12.70
2023-03-19T14:31:53.617Z,13.10
2023-03-19T14:34:32.202Z,13.30
2023-03-19T14:37:08.276Z,13.40
2023-03-19T14:39:41.933Z,13.20
2023-03-19T14:42:14.360Z,13.30
2023-03-19T14:44:44.280Z,13.00
2023-03-19T14:47:20.931Z,12.90
2023-03-19T14:49:50.606Z,13.10
2023-03-19T14:52:35.042Z,13.10
2023-03-19T14:55:03.624Z,13.20
2023-03-19T14:57:33.033Z,13.10
2023-03-19T15:00:00.694Z,12.80
2023-03-19T15:02:30.582Z,13.00
2023-03-19T15:05:00.550Z,13.10
2023-03-19T15:07:34.225Z,13.20
2023-03-19T15:10:06.432Z,13.10
2023-03-19T15:12:49.808Z,13.10
2023-03-19T15:15:31.702Z,13.10
2023-03-19T15:18:07.533Z,12.90
2023-03-19T15:20:47.268Z,13.00
2023-03-19T15:23:26.888Z,12.80
2023-03-19T15:25:57.739Z,12.70
2023-03-19T15:28:28.042Z,12.60
2023-03-19T15:31:05.768Z,12.40
2023-03-19T15:33:44.838Z,12.40
2023-03-19T15:36:18.539Z,12.30
2023-03-19T15:38:59.841Z,12.30
2023-03-19T15:41:29.850Z,12.20
2023-03-19T15:43:56.941Z,12.20
2023-03-19T15:46:31.426Z,12.10
2023-03-19T15:49:07.487Z,12.20
2023-03-19T15:51:34.803Z,12.20
2023-03-19T15:54:03.194Z,12.40
2023-03-19T15:56:32.297Z,12.10
2023-03-19T15:59:00.729Z,12.30
2023-03-19T16:01:28.414Z,12.30
2023-03-19T16:04:05.680Z,12.30
2023-03-19T16:06:39.683Z,12.20
2023-03-19T16:09:17.104Z,12.00
2023-03-19T16:11:45.660Z,12.00
2023-03-19T16:14:23.088Z,12.00
2023-03-19T16:16:50.633Z,12.00
2023-03-19T16:19:29.710Z,11.80
2023-03-19T16:21:56.908Z,11.90
2023-03-19T16:24:37.652Z,11.80
2023-03-19T16:27:07.797Z,11.80
2023-03-19T16:29:39.930Z,11.70
2023-03-19T16:32:20.343Z,11.80
2023-03-19T16:34:56.976Z,11.70
2023-03-19T16:37:40.437Z,11.70
2023-03-19T16:40:13.290Z,11.70
2023-03-19T16:42:44.029Z,11.70
2023-03-19T16:45:19.866Z,11.70
2023-03-19T16:47:51.995Z,11.70
2023-03-19T16:50:22.099Z,11.80
2023-03-19T16:52:49.791Z,11.90
2023-03-19T16:55:24.559Z,11.80
2023-03-19T16:58:01.192Z,11.90
2023-03-19T17:00:31.849Z,11.90
2023-03-19T17:02:59.498Z,11.90
2023-03-19T17:05:28.003Z,11.70
2023-03-19T17:07:55.789Z,11.70
2023-03-19T17:10:25.232Z,11.60
2023-03-19T17:12:54.114Z,11.70
2023-03-19T17:15:37.959Z,11.70
2023-03-19T17:18:30.435Z,11.70
2023-03-19T17:21:09.815Z,11.80
2023-03-19T17:23:38.052Z,11.60
2023-03-19T17:26:21.438Z,11.60
2023-03-19T17:28:48.700Z,11.40
2023-03-19T17:31:28.779Z,11.40
2023-03-19T17:34:12.116Z,11.40
2023-03-19T17:36:39.552Z,11.30
2023-03-19T17:39:07.646Z,11.50
2023-03-19T17:41:35.608Z,11.40
2023-03-19T17:44:05.835Z,11.40
2023-03-19T17:46:38.513Z,11.30
2023-03-19T17:49:05.471Z,11.20
2023-03-19T17:51:32.338Z,11.20
2023-03-19T17:53:59.414Z,11.10
2023-03-19T17:56:26.434Z,11.00
2023-03-19T17:58:53.749Z,10.90
2023-03-19T18:01:24.225Z,11.00
2023-03-19T18:03:53.367Z,10.90
2023-03-19T18:06:23.435Z,11.00
2023-03-19T18:08:50.931Z,10.80
2023-03-19T18:11:17.865Z,10.80
2023-03-19T18:13:44.693Z,10.80
2023-03-19T18:16:28.227Z,10.70
2023-03-19T18:18:57.804Z,10.60
2023-03-19T18:21:25.496Z,10.60
2023-03-19T18:23:52.876Z,10.60
2023-03-19T18:26:19.897Z,10.60
2023-03-19T18:28:46.736Z,10.50
2023-03-19T18:31:19.249Z,10.50
2023-03-19T18:33:50.714Z,10.50
2023-03-19T18:36:24.500Z,10.40
2023-03-19T18:38:52.339Z,10.60
2023-03-19T18:41:20.459Z,10.50
2023-03-19T18:44:03.871Z,10.40
2023-03-19T18:46:32.023Z,10.20
2023-03-19T18:49:05.310Z,10.40
2023-03-19T18:51:32.373Z,10.20
2023-03-19T18:53:59.588Z,10.20
2023-03-19T18:56:33.012Z,10.00
2023-03-19T18:59:00.837Z,10.10
2023-03-19T19:01:28.306Z,10.10
2023-03-19T19:03:55.470Z,10.00
2023-03-19T19:06:45.950Z,10.00
2023-03-19T19:09:14.032Z,10.00
2023-03-19T19:11:43.894Z,9.90
2023-03-19T19:14:20.679Z,9.80
2023-03-19T19:16:48.013Z,9.90
2023-03-19T19:19:17.681Z,9.80
2023-03-19T19:21:44.719Z,9.80
2023-03-19T19:24:14.821Z,9.80
2023-03-19T19:26:44.379Z,9.70
2023-03-19T19:29:19.025Z,9.80
2023-03-19T19:31:45.924Z,9.80
2023-03-19T19:34:15.601Z,9.70
2023-03-19T19:36:43.215Z,9.70
2023-03-19T19:39:10.527Z,9.60
2023-03-19T19:41:37.829Z,9.60
2023-03-19T19:44:05.073Z,9.60
2023-03-19T19:46:32.540Z,9.60
2023-03-19T19:48:59.634Z,9.60
2023-03-19T19:51:29.356Z,9.50
2023-03-19T19:53:56.341Z,9.50
2023-03-19T19:56:25.079Z,9.70
2023-03-19T19:58:54.184Z,9.60
2023-03-19T20:01:23.562Z,9.50
2023-03-19T20:03:51.981Z,9.50
2023-03-19T20:06:19.789Z,9.50
2023-03-19T20:08:49.265Z,9.50
2023-03-19T20:11:24.411Z,9.40
2023-03-19T20:13:54.492Z,9.40
2023-03-19T20:16:24.263Z,9.40
2023-03-19T20:18:53.740Z,9.40
2023-03-19T20:21:21.614Z,9.30
2023-03-19T20:23:52.828Z,9.20
2023-03-19T20:26:22.295Z,9.40
2023-03-19T20:28:50.699Z,9.20
2023-03-19T20:31:27.210Z,9.30
2023-03-19T20:33:54.013Z,9.20
2023-03-19T20:36:21.093Z,9.30
2023-03-19T20:38:47.949Z,9.20
2023-03-19T20:41:27.284Z,9.20
2023-03-19T20:43:55.611Z,9.00
2023-03-19T20:46:23.281Z,9.20
2023-03-19T20:48:50.681Z,9.20
2023-03-19T20:51:24.596Z,9.20
2023-03-19T20:53:52.877Z,9.10
2023-03-19T20:56:22.116Z,9.10
2023-03-19T20:58:49.406Z,9.10
2023-03-19T21:01:17.824Z,9.10
2023-03-19T21:03:44.819Z,9.00
2023-03-19T21:06:20.852Z,9.10
2023-03-19T21:08:57.011Z,9.20
2023-03-19T21:11:33.697Z,9.00
2023-03-19T21:14:01.536Z,9.10
2023-03-19T21:16:30.667Z,9.10
2023-03-19T21:18:57.600Z,9.00
2023-03-19T21:21:32.429Z,9.10
2023-03-19T21:24:06.718Z,9.00
2023-03-19T21:26:37.967Z,9.00
2023-03-19T21:29:08.556Z,9.00
2023-03-19T21:31:35.586Z,9.10
2023-03-19T21:34:02.624Z,9.00
2023-03-19T21:36:29.460Z,9.00
2023-03-19T21:38:56.438Z,9.00
2023-03-19T21:41:31.810Z,9.10
2023-03-19T21:44:02.932Z,9.10
2023-03-19T21:46:31.610Z,9.20
2023-03-19T21:48:59.158Z,9.00
2023-03-19T21:51:28.233Z,9.10
2023-03-19T21:53:55.380Z,9.20
2023-03-19T21:56:24.977Z,9.00
2023-03-19T21:58:53.046Z,9.00
2023-03-19T22:01:23.671Z,9.00
2023-03-19T22:03:55.454Z,9.00
2023-03-19T22:06:22.573Z,9.00
2023-03-19T22:08:50.940Z,9.00
2023-03-19T22:11:30.401Z,9.00
2023-03-19T22:14:05.809Z,9.00
2023-03-19T22:16:33.317Z,9.00
2023-03-19T22:19:01.410Z,9.00
2023-03-19T22:21:30.565Z,9.00
2023-03-19T22:23:57.418Z,9.00
2023-03-19T22:26:29.206Z,9.00
2023-03-19T22:28:58.424Z,9.00
2023-03-19T22:31:25.542Z,9.00
2023-03-19T22:33:52.679Z,9.00
2023-03-19T22:36:19.563Z,9.00
2023-03-19T22:38:48.744Z,9.00
2023-03-19T22:41:27.424Z,9.00
2023-03-19T22:43:55.114Z,9.00
2023-03-19T22:46:22.342Z,9.00
2023-03-19T22:48:52.605Z,9.00
2023-03-19T22:51:25.564Z,9.00
2023-03-19T22:53:52.904Z,9.00
2023-03-19T22:56:21.390Z,9.00
2023-03-19T22:58:48.715Z,9.00
2023-03-19T23:01:22.500Z,9.10
2023-03-19T23:03:50.912Z,9.00
2023-03-19T23:06:29.708Z,9.00
2023-03-19T23:08:57.782Z,9.00
2023-03-19T23:11:24.747Z,9.00
2023-03-19T23:13:51.904Z,8.90
2023-03-19T23:16:23.959Z,9.00
2023-03-19T23:18:51.543Z,8.90
2023-03-19T23:21:19.875Z,9.00
2023-03-19T23:23:46.825Z,8.90
2023-03-19T23:26:29.123Z,9.00
2023-03-19T23:29:06.534Z,8.90
2023-03-19T23:31:34.399Z,9.10
2023-03-19T23:34:01.606Z,8.90
2023-03-19T23:36:28.440Z,8.90
2023-03-19T23:38:56.468Z,8.90
2023-03-19T23:41:26.782Z,8.90
2023-03-19T23:43:54.921Z,9.00
2023-03-19T23:46:22.182Z,9.10
2023-03-19T23:48:49.051Z,9.00
2023-03-19T23:51:16.442Z,9.10
2023-03-19T23:53:44.096Z,8.90
2023-03-19T23:56:21.355Z,8.90
2023-03-19T23:58:50.581Z,8.90
